sensor_id;sensor_type;location;lat;lon;timestamp;pressure;altitude;pressure_sealevel;temperature;humidity
32109;BME280;18624;50.042;8.436;2023-03-13T00:02:03;99738.09;;;7.05;100.00
32109;BME280;18624;50.042;8.436;2023-03-13T00:04:29;99650.06;;;6.48;100.00
32109;BME280;18624;50.042;8.436;2023-03-13T00:06:56;99637.81;;;6.40;100.00
32109;BME280;18624;50.042;8.436;2023-03-13T00:09:22;99645.69;;;6.54;100.00
32109;BME280;18624;50.042;8.436;2023-03-13T00:11:48;99651.47;;;6.56;100.00
32109;BME280;18624;50.042;8.436;2023-03-13T00:14:15;99715.16;;;7.02;100.00
32109;BME280;18624;50.042;8.436;2023-03-13T00:16:41;99766.31;;;7.34;100.00
32109;BME280;18624;50.042;8.436;2023-03-13T00:19:08;99761.28;;;7.33;100.00
32109;BME280;18624;50.042;8.436;2023-03-13T00:21:35;99740.78;;;7.25;100.00
32109;BME280;18624;50.042;8.436;2023-03-13T00:24:06;99763.78;;;7.44;100.00
32109;BME280;18624;50.042;8.436;2023-03-13T00:26:34;99682.06;;;6.84;100.00
32109;BME280;18624;50.042;8.436;2023-03-13T00:29:01;99703.94;;;7.00;100.00
32109;BME280;18624;50.042;8.436;2023-03-13T00:31:29;99718.97;;;7.08;100.00
32109;BME280;18624;50.042;8.436;2023-03-13T00:33:58;99753.97;;;7.30;100.00
32109;BME280;18624;50.042;8.436;2023-03-13T00:36:30;99615.38;;;6.52;100.00
32109;BME280;18624;50.042;8.436;2023-03-13T00:39:00;99745.81;;;7.46;100.00
32109;BME280;18624;50.042;8.436;2023-03-13T00:41:30;99628.75;;;6.67;100.00
32109;BME280;18624;50.042;8.436;2023-03-13T00:43:57;99548.03;;;6.17;100.00
32109;BME280;18624;50.042;8.436;2023-03-13T00:46:26;99738.31;;;7.50;100.00
32109;BME280;18624;50.042;8.436;2023-03-13T00:48:52;99743.78;;;7.50;100.00
32109;BME280;18624;50.042;8.436;2023-03-13T00:51:21;99462.34;;;5.65;100.00
32109;BME280;18624;50.042;8.436;2023-03-13T00:53:49;99485.66;;;5.86;100.00
32109;BME280;18624;50.042;8.436;2023-03-13T00:56:17;99719.59;;;7.52;100.00
32109;BME280;18624;50.042;8.436;2023-03-13T00:58:46;99712.94;;;7.53;100.00
32109;BME280;18624;50.042;8.436;2023-03-13T01:01:18;99577.81;;;6.64;100.00
32109;BME280;18624;50.042;8.436;2023-03-13T01:03:48;99594.44;;;6.89;100.00
32109;BME280;18624;50.042;8.436;2023-03-13T01:06:17;99696.91;;;7.55;100.00
32109;BME280;18624;50.042;8.436;2023-03-13T01:08:44;99476.63;;;6.13;100.00
32109;BME280;18624;50.042;8.436;2023-03-13T01:11:16;99687.97;;;7.55;100.00
32109;BME280;18624;50.042;8.436;2023-03-13T01:13:43;99565.94;;;6.74;100.00
32109;BME280;18624;50.042;8.436;2023-03-13T01:16:20;99679.72;;;7.58;100.00
32109;BME280;18624;50.042;8.436;2023-03-13T01:18:50;99674.59;;;7.60;100.00
32109;BME280;18624;50.042;8.436;2023-03-13T01:21:17;99674.59;;;7.60;100.00
32109;BME280;18624;50.042;8.436;2023-03-13T01:23:45;99660.78;;;7.51;100.00
32109;BME280;18624;50.042;8.436;2023-03-13T01:26:13;99556.69;;;6.88;100.00
32109;BME280;18624;50.042;8.436;2023-03-13T01:28:40;99645.78;;;7.43;100.00
32109;BME280;18624;50.042;8.436;2023-03-13T01:31:19;99604.09;;;7.26;100.00
32109;BME280;18624;50.042;8.436;2023-03-13T01:33:47;99658.66;;;7.59;100.00
32109;BME280;18624;50.042;8.436;2023-03-13T01:36:15;99653.19;;;7.59;100.00
32109;BME280;18624;50.042;8.436;2023-03-13T01:38:42;99585.34;;;7.12;100.00
32109;BME280;18624;50.042;8.436;2023-03-13T01:41:11;99646.53;;;7.60;100.00
32109;BME280;18624;50.042;8.436;2023-03-13T01:43:37;99567.44;;;7.11;100.00
32109;BME280;18624;50.042;8.436;2023-03-13T01:48:43;99636.00;;;7.62;100.00
32109;BME280;18624;50.042;8.436;2023-03-13T01:51:21;99629.78;;;7.61;100.00
32109;BME280;18624;50.042;8.436;2023-03-13T01:53:55;99571.81;;;7.25;100.00
32109;BME280;18624;50.042;8.436;2023-03-13T01:56:27;99544.47;;;7.12;100.00
32109;BME280;18624;50.042;8.436;2023-03-13T01:58:56;99507.25;;;6.89;100.00
32109;BME280;18624;50.042;8.436;2023-03-13T02:01:25;99570.38;;;7.36;100.00
32109;BME280;18624;50.042;8.436;2023-03-13T02:03:53;99536.81;;;7.23;100.00
32109;BME280;18624;50.042;8.436;2023-03-13T02:06:21;99535.97;;;7.26;100.00
32109;BME280;18624;50.042;8.436;2023-03-13T02:08:54;99578.03;;;7.58;100.00
32109;BME280;18624;50.042;8.436;2023-03-13T02:11:28;99522.41;;;7.23;100.00
32109;BME280;18624;50.042;8.436;2023-03-13T02:13:56;99530.69;;;7.35;100.00
32109;BME280;18624;50.042;8.436;2023-03-13T02:16:23;99501.44;;;7.20;100.00
32109;BME280;18624;50.042;8.436;2023-03-13T02:18:50;99535.69;;;7.37;100.00
32109;BME280;18624;50.042;8.436;2023-03-13T02:21:29;99541.22;;;7.50;100.00
32109;BME280;18624;50.042;8.436;2023-03-13T02:24:12;99557.16;;;7.68;100.00
32109;BME280;18624;50.042;8.436;2023-03-13T02:26:39;99475.22;;;7.09;100.00
32109;BME280;18624;50.042;8.436;2023-03-13T02:29:06;99480.09;;;7.18;100.00
32109;BME280;18624;50.042;8.436;2023-03-13T02:31:33;99517.72;;;7.40;100.00
32109;BME280;18624;50.042;8.436;2023-03-13T02:34:00;99459.72;;;7.06;100.00
32109;BME280;18624;50.042;8.436;2023-03-13T02:36:29;99538.34;;;7.57;100.00
32109;BME280;18624;50.042;8.436;2023-03-13T02:39:00;99456.06;;;7.13;100.00
32109;BME280;18624;50.042;8.436;2023-03-13T02:41:29;99421.75;;;6.83;100.00
32109;BME280;18624;50.042;8.436;2023-03-13T02:43:57;99494.47;;;7.35;100.00
32109;BME280;18624;50.042;8.436;2023-03-13T02:46:24;99413.25;;;6.81;100.00
32109;BME280;18624;50.042;8.436;2023-03-13T02:48:54;99509.72;;;7.49;100.00
32109;BME280;18624;50.042;8.436;2023-03-13T02:51:36;99513.19;;;7.66;100.00
32109;BME280;18624;50.042;8.436;2023-03-13T02:54:08;99384.38;;;6.83;100.00
32109;BME280;18624;50.042;8.436;2023-03-13T02:56:36;99449.97;;;7.38;100.00
32109;BME280;18624;50.042;8.436;2023-03-13T02:59:04;99379.47;;;6.95;100.00
32109;BME280;18624;50.042;8.436;2023-03-13T03:01:33;99440.34;;;7.33;100.00
32109;BME280;18624;50.042;8.436;2023-03-13T03:04:00;99331.56;;;6.65;100.00
32109;BME280;18624;50.042;8.436;2023-03-13T03:06:26;99419.59;;;7.23;100.00
32109;BME280;18624;50.042;8.436;2023-03-13T03:08:54;99463.75;;;7.64;100.00
32109;BME280;18624;50.042;8.436;2023-03-13T03:11:20;99412.34;;;7.33;100.00
32109;BME280;18624;50.042;8.436;2023-03-13T03:13:52;99444.81;;;7.56;100.00
32109;BME280;18624;50.042;8.436;2023-03-13T03:16:19;99444.41;;;7.58;100.00
32109;BME280;18624;50.042;8.436;2023-03-13T03:18:46;99385.28;;;7.26;100.00
32109;BME280;18624;50.042;8.436;2023-03-13T03:21:13;99381.97;;;7.18;100.00
32109;BME280;18624;50.042;8.436;2023-03-13T03:23:39;99481.81;;;7.86;100.00
32109;BME280;18624;50.042;8.436;2023-03-13T03:26:06;99477.56;;;7.85;100.00
32109;BME280;18624;50.042;8.436;2023-03-13T03:28:33;99460.56;;;7.65;100.00
32109;BME280;18624;50.042;8.436;2023-03-13T03:31:08;99484.63;;;7.83;100.00
32109;BME280;18624;50.042;8.436;2023-03-13T03:33:36;99478.88;;;7.81;100.00
32109;BME280;18624;50.042;8.436;2023-03-13T03:36:07;99482.78;;;7.80;100.00
32109;BME280;18624;50.042;8.436;2023-03-13T03:38:34;99464.19;;;7.62;100.00
32109;BME280;18624;50.042;8.436;2023-03-13T03:41:01;99404.88;;;7.21;100.00
32109;BME280;18624;50.042;8.436;2023-03-13T03:43:28;99477.19;;;7.71;100.00
32109;BME280;18624;50.042;8.436;2023-03-13T03:45:55;99487.66;;;7.72;100.00
32109;BME280;18624;50.042;8.436;2023-03-13T03:48:22;99449.94;;;7.54;100.00
32109;BME280;18624;50.042;8.436;2023-03-13T03:50:48;99469.44;;;7.69;100.00
32109;BME280;18624;50.042;8.436;2023-03-13T03:53:15;99337.09;;;6.77;100.00
32109;BME280;18624;50.042;8.436;2023-03-13T03:55:43;99231.06;;;6.08;100.00
32109;BME280;18624;50.042;8.436;2023-03-13T03:58:10;99455.13;;;7.65;100.00
32109;BME280;18624;50.042;8.436;2023-03-13T04:00:53;99456.31;;;7.64;100.00
32109;BME280;18624;50.042;8.436;2023-03-13T04:03:21;99415.34;;;7.39;100.00
32109;BME280;18624;50.042;8.436;2023-03-13T04:05:48;99437.00;;;7.58;100.00
32109;BME280;18624;50.042;8.436;2023-03-13T04:08:14;99425.59;;;7.47;100.00
32109;BME280;18624;50.042;8.436;2023-03-13T04:10:41;99371.59;;;7.13;100.00
32109;BME280;18624;50.042;8.436;2023-03-13T04:13:08;99442.34;;;7.62;100.00
32109;BME280;18624;50.042;8.436;2023-03-13T04:15:37;99431.44;;;7.62;100.00
32109;BME280;18624;50.042;8.436;2023-03-13T04:18:04;99394.38;;;7.35;100.00
32109;BME280;18624;50.042;8.436;2023-03-13T04:20:32;99438.09;;;7.61;100.00
32109;BME280;18624;50.042;8.436;2023-03-13T04:22:58;99378.41;;;7.21;100.00
32109;BME280;18624;50.042;8.436;2023-03-13T04:25:25;99402.47;;;7.52;100.00
32109;BME280;18624;50.042;8.436;2023-03-13T04:27:54;99394.16;;;7.43;100.00
32109;BME280;18624;50.042;8.436;2023-03-13T04:30:24;99418.22;;;7.60;100.00
32109;BME280;18624;50.042;8.436;2023-03-13T04:33:03;99333.09;;;7.11;100.00
32109;BME280;18624;50.042;8.436;2023-03-13T04:35:49;99363.63;;;7.35;100.00
32109;BME280;18624;50.042;8.436;2023-03-13T04:38:40;99396.88;;;7.43;100.00
32109;BME280;18624;50.042;8.436;2023-03-13T04:41:26;99408.53;;;7.59;100.00
32109;BME280;18624;50.042;8.436;2023-03-13T04:44:06;99324.38;;;7.03;100.00
32109;BME280;18624;50.042;8.436;2023-03-13T04:46:40;99327.38;;;7.22;100.00
32109;BME280;18624;50.042;8.436;2023-03-13T04:49:26;99326.41;;;7.28;100.00
32109;BME280;18624;50.042;8.436;2023-03-13T04:52:06;99375.69;;;7.63;100.00
32109;BME280;18624;50.042;8.436;2023-03-13T04:55:07;99342.03;;;7.41;100.00
32109;BME280;18624;50.042;8.436;2023-03-13T04:57:49;99312.63;;;7.19;100.00
32109;BME280;18624;50.042;8.436;2023-03-13T05:00:38;99364.56;;;7.57;100.00
32109;BME280;18624;50.042;8.436;2023-03-13T05:03:25;99372.66;;;7.61;100.00
32109;BME280;18624;50.042;8.436;2023-03-13T05:06:10;99380.56;;;7.84;100.00
32109;BME280;18624;50.042;8.436;2023-03-13T05:08:49;99338.94;;;7.68;100.00
32109;BME280;18624;50.042;8.436;2023-03-13T05:11:41;99303.38;;;7.58;100.00
32109;BME280;18624;50.042;8.436;2023-03-13T05:14:16;99320.53;;;7.84;100.00
32109;BME280;18624;50.042;8.436;2023-03-13T05:16:59;99294.09;;;7.69;100.00
32109;BME280;18624;50.042;8.436;2023-03-13T05:19:39;99330.69;;;8.09;100.00
32109;BME280;18624;50.042;8.436;2023-03-13T05:22:22;99315.22;;;8.06;100.00
32109;BME280;18624;50.042;8.436;2023-03-13T05:24:51;99344.53;;;8.28;100.00
32109;BME280;18624;50.042;8.436;2023-03-13T05:27:44;99294.78;;;7.98;100.00
32109;BME280;18624;50.042;8.436;2023-03-13T05:30:23;99327.50;;;8.24;100.00
32109;BME280;18624;50.042;8.436;2023-03-13T05:33:04;99297.63;;;8.07;100.00
32109;BME280;18624;50.042;8.436;2023-03-13T05:35:53;99288.00;;;8.16;100.00
32109;BME280;18624;50.042;8.436;2023-03-13T05:38:36;99269.69;;;8.03;100.00
32109;BME280;18624;50.042;8.436;2023-03-13T05:41:10;99212.81;;;7.64;100.00
32109;BME280;18624;50.042;8.436;2023-03-13T05:43:57;99303.19;;;8.17;100.00
32109;BME280;18624;50.042;8.436;2023-03-13T05:46:32;99314.09;;;8.17;100.00
32109;BME280;18624;50.042;8.436;2023-03-13T05:49:13;99355.94;;;8.39;100.00
32109;BME280;18624;50.042;8.436;2023-03-13T05:52:06;99271.53;;;7.81;100.00
32109;BME280;18624;50.042;8.436;2023-03-13T05:54:45;99298.94;;;8.03;100.00
32109;BME280;18624;50.042;8.436;2023-03-13T05:57:43;99336.25;;;8.31;100.00
32109;BME280;18624;50.042;8.436;2023-03-13T06:00:19;99346.09;;;8.54;100.00
32109;BME280;18624;50.042;8.436;2023-03-13T06:02:59;99266.50;;;8.18;100.00
32109;BME280;18624;50.042;8.436;2023-03-13T06:05:35;99284.28;;;8.48;100.00
32109;BME280;18624;50.042;8.436;2023-03-13T06:08:06;99243.66;;;8.37;100.00
32109;BME280;18624;50.042;8.436;2023-03-13T06:10:33;99245.78;;;8.55;100.00
32109;BME280;18624;50.042;8.436;2023-03-13T06:12:59;99311.00;;;9.00;100.00
32109;BME280;18624;50.042;8.436;2023-03-13T06:15:55;99287.78;;;9.05;100.00
32109;BME280;18624;50.042;8.436;2023-03-13T06:18:39;99291.63;;;9.07;100.00
32109;BME280;18624;50.042;8.436;2023-03-13T06:21:05;99266.66;;;8.96;100.00
32109;BME280;18624;50.042;8.436;2023-03-13T06:23:31;99234.91;;;8.77;100.00
32109;BME280;18624;50.042;8.436;2023-03-13T06:25:59;99303.44;;;9.26;100.00
32109;BME280;18624;50.042;8.436;2023-03-13T06:28:25;99259.69;;;9.04;100.00
32109;BME280;18624;50.042;8.436;2023-03-13T06:30:51;99213.69;;;8.81;100.00
32109;BME280;18624;50.042;8.436;2023-03-13T06:33:18;99239.44;;;8.93;100.00
32109;BME280;18624;50.042;8.436;2023-03-13T06:35:44;99253.94;;;9.02;100.00
32109;BME280;18624;50.042;8.436;2023-03-13T06:38:25;99287.44;;;9.37;100.00
32109;BME280;18624;50.042;8.436;2023-03-13T06:40:52;99322.47;;;9.52;100.00
32109;BME280;18624;50.042;8.436;2023-03-13T06:43:19;99256.31;;;9.22;100.00
32109;BME280;18624;50.042;8.436;2023-03-13T06:45:47;99288.13;;;9.51;100.00
32109;BME280;18624;50.042;8.436;2023-03-13T06:48:13;99249.22;;;9.25;100.00
32109;BME280;18624;50.042;8.436;2023-03-13T06:50:40;99301.44;;;9.71;100.00
32109;BME280;18624;50.042;8.436;2023-03-13T06:53:08;99295.84;;;9.74;100.00
32109;BME280;18624;50.042;8.436;2023-03-13T06:55:39;99213.66;;;9.25;100.00
32109;BME280;18624;50.042;8.436;2023-03-13T06:58:05;99281.09;;;9.81;100.00
32109;BME280;18624;50.042;8.436;2023-03-13T07:00:32;99295.41;;;9.85;100.00
32109;BME280;18624;50.042;8.436;2023-03-13T07:03:00;99281.91;;;9.90;100.00
32109;BME280;18624;50.042;8.436;2023-03-13T07:05:26;99284.84;;;9.96;100.00
32109;BME280;18624;50.042;8.436;2023-03-13T07:07:53;99235.09;;;9.57;100.00
32109;BME280;18624;50.042;8.436;2023-03-13T07:10:19;99177.19;;;9.19;100.00
32109;BME280;18624;50.042;8.436;2023-03-13T07:12:45;99283.72;;;9.84;100.00
32109;BME280;18624;50.042;8.436;2023-03-13T07:15:12;99142.81;;;8.86;100.00
32109;BME280;18624;50.042;8.436;2023-03-13T07:17:38;99207.72;;;9.48;100.00
32109;BME280;18624;50.042;8.436;2023-03-13T07:20:05;99191.84;;;9.34;100.00
32109;BME280;18624;50.042;8.436;2023-03-13T07:22:35;99182.06;;;9.24;100.00
32109;BME280;18624;50.042;8.436;2023-03-13T07:25:03;99308.31;;;10.15;100.00
32109;BME280;18624;50.042;8.436;2023-03-13T07:27:31;99140.78;;;9.00;100.00
32109;BME280;18624;50.042;8.436;2023-03-13T07:29:57;99243.50;;;9.72;100.00
32109;BME280;18624;50.042;8.436;2023-03-13T07:32:24;99165.03;;;9.20;100.00
32109;BME280;18624;50.042;8.436;2023-03-13T07:34:50;99300.72;;;10.20;100.00
32109;BME280;18624;50.042;8.436;2023-03-13T07:37:17;99288.50;;;10.02;100.00
32109;BME280;18624;50.042;8.436;2023-03-13T07:39:43;99191.13;;;9.43;100.00
32109;BME280;18624;50.042;8.436;2023-03-13T07:42:10;99302.31;;;10.30;100.00
32109;BME280;18624;50.042;8.436;2023-03-13T07:44:39;99198.16;;;9.53;100.00
32109;BME280;18624;50.042;8.436;2023-03-13T07:47:05;99111.34;;;9.04;100.00
32109;BME280;18624;50.042;8.436;2023-03-13T07:49:32;99291.91;;;10.15;100.00
32109;BME280;18624;50.042;8.436;2023-03-13T07:51:58;99198.91;;;9.53;100.00
32109;BME280;18624;50.042;8.436;2023-03-13T07:54:25;99085.44;;;8.86;100.00
32109;BME280;18624;50.042;8.436;2023-03-13T07:56:51;99274.25;;;10.17;100.00
32109;BME280;18624;50.042;8.436;2023-03-13T07:59:18;99192.13;;;9.67;100.00
32109;BME280;18624;50.042;8.436;2023-03-13T08:01:44;99303.91;;;10.49;100.00
32109;BME280;18624;50.042;8.436;2023-03-13T08:04:14;99271.56;;;10.26;100.00
32109;BME280;18624;50.042;8.436;2023-03-13T08:06:40;99297.63;;;10.49;100.00
32109;BME280;18624;50.042;8.436;2023-03-13T08:09:07;99321.41;;;10.70;100.00
32109;BME280;18624;50.042;8.436;2023-03-13T08:11:34;99252.72;;;10.28;100.00
32109;BME280;18624;50.042;8.436;2023-03-13T08:14:00;99274.78;;;10.43;100.00
32109;BME280;18624;50.042;8.436;2023-03-13T08:16:32;99307.56;;;10.64;100.00
32109;BME280;18624;50.042;8.436;2023-03-13T08:19:00;99321.75;;;10.81;100.00
32109;BME280;18624;50.042;8.436;2023-03-13T08:21:35;99321.00;;;10.81;100.00
32109;BME280;18624;50.042;8.436;2023-03-13T08:24:04;99305.44;;;10.78;100.00
32109;BME280;18624;50.042;8.436;2023-03-13T08:26:33;99262.00;;;10.49;100.00
32109;BME280;18624;50.042;8.436;2023-03-13T08:29:02;99318.41;;;10.96;100.00
32109;BME280;18624;50.042;8.436;2023-03-13T08:31:34;99315.19;;;10.97;100.00
32109;BME280;18624;50.042;8.436;2023-03-13T08:34:01;99242.38;;;10.41;100.00
32109;BME280;18624;50.042;8.436;2023-03-13T08:36:30;99289.63;;;10.82;100.00
32109;BME280;18624;50.042;8.436;2023-03-13T08:38:59;99311.84;;;11.02;100.00
32109;BME280;18624;50.042;8.436;2023-03-13T08:41:28;99304.69;;;10.96;100.00
32109;BME280;18624;50.042;8.436;2023-03-13T08:43:55;99323.00;;;11.08;100.00
32109;BME280;18624;50.042;8.436;2023-03-13T08:46:23;99321.00;;;11.08;100.00
32109;BME280;18624;50.042;8.436;2023-03-13T08:48:53;99319.31;;;11.11;100.00
32109;BME280;18624;50.042;8.436;2023-03-13T08:51:25;99307.13;;;11.03;100.00
32109;BME280;18624;50.042;8.436;2023-03-13T08:53:54;99309.09;;;11.21;100.00
32109;BME280;18624;50.042;8.436;2023-03-13T08:56:26;99271.03;;;10.95;100.00
32109;BME280;18624;50.042;8.436;2023-03-13T08:58:58;99296.16;;;11.03;100.00
32109;BME280;18624;50.042;8.436;2023-03-13T09:01:27;99291.00;;;11.05;100.00
32109;BME280;18624;50.042;8.436;2023-03-13T09:03:55;99335.16;;;11.25;100.00
32109;BME280;18624;50.042;8.436;2023-03-13T09:06:22;99225.22;;;10.59;100.00
32109;BME280;18624;50.042;8.436;2023-03-13T09:08:49;99275.91;;;10.91;100.00
32109;BME280;18624;50.042;8.436;2023-03-13T09:11:19;99295.84;;;11.10;100.00
32109;BME280;18624;50.042;8.436;2023-03-13T09:13:47;99206.03;;;10.50;100.00
32109;BME280;18624;50.042;8.436;2023-03-13T09:16:22;99286.13;;;11.09;100.00
32109;BME280;18624;50.042;8.436;2023-03-13T09:18:50;99295.84;;;11.10;100.00
32109;BME280;18624;50.042;8.436;2023-03-13T09:21:19;99263.44;;;10.90;100.00
32109;BME280;18624;50.042;8.436;2023-03-13T09:23:46;99257.94;;;10.90;100.00
32109;BME280;18624;50.042;8.436;2023-03-13T09:26:13;99283.50;;;11.14;100.00
32109;BME280;18624;50.042;8.436;2023-03-13T09:28:40;99274.53;;;11.14;100.00
32109;BME280;18624;50.042;8.436;2023-03-13T09:31:12;99200.97;;;10.67;100.00
32109;BME280;18624;50.042;8.436;2023-03-13T09:33:40;99192.47;;;10.64;100.00
32109;BME280;18624;50.042;8.436;2023-03-13T09:36:08;99271.63;;;11.27;100.00
32109;BME280;18624;50.042;8.436;2023-03-13T09:38:35;99257.59;;;11.25;100.00
32109;BME280;18624;50.042;8.436;2023-03-13T09:43:59;99236.44;;;11.07;100.00
32109;BME280;18624;50.042;8.436;2023-03-13T09:46:34;99157.59;;;10.65;100.00
32109;BME280;18624;50.042;8.436;2023-03-13T09:49:11;99221.66;;;11.13;100.00
32109;BME280;18624;50.042;8.436;2023-03-13T09:51:40;99215.72;;;11.06;100.00
32109;BME280;18624;50.042;8.436;2023-03-13T09:54:19;99141.44;;;10.67;100.00
32109;BME280;18624;50.042;8.436;2023-03-13T09:57:02;99248.56;;;11.43;100.00
32109;BME280;18624;50.042;8.436;2023-03-13T09:59:41;99130.34;;;10.61;100.00
32109;BME280;18624;50.042;8.436;2023-03-13T10:02:32;99198.97;;;11.13;100.00
32109;BME280;18624;50.042;8.436;2023-03-13T10:05:26;99244.88;;;11.55;100.00
32109;BME280;18624;50.042;8.436;2023-03-13T10:08:04;99219.28;;;11.49;100.00
32109;BME280;18624;50.042;8.436;2023-03-13T10:10:57;99185.97;;;11.32;100.00
32109;BME280;18624;50.042;8.436;2023-03-13T10:13:33;99241.75;;;11.80;100.00
32109;BME280;18624;50.042;8.436;2023-03-13T10:16:11;99249.38;;;11.85;100.00
32109;BME280;18624;50.042;8.436;2023-03-13T10:18:50;99197.91;;;11.62;100.00
32109;BME280;18624;50.042;8.436;2023-03-13T10:21:20;99171.72;;;11.43;100.00
32109;BME280;18624;50.042;8.436;2023-03-13T10:23:50;99242.44;;;11.99;100.00
32109;BME280;18624;50.042;8.436;2023-03-13T10:26:23;99173.81;;;11.57;100.00
32109;BME280;18624;50.042;8.436;2023-03-13T10:28:52;99163.19;;;11.50;100.00
32109;BME280;18624;50.042;8.436;2023-03-13T10:33:51;99183.34;;;11.71;100.00
32109;BME280;18624;50.042;8.436;2023-03-13T10:36:18;99178.28;;;11.78;100.00
32109;BME280;18624;50.042;8.436;2023-03-13T10:41:30;99136.63;;;11.56;100.00
32109;BME280;18624;50.042;8.436;2023-03-13T10:44:02;99244.09;;;12.30;100.00
32109;BME280;18624;50.042;8.436;2023-03-13T10:46:32;99043.13;;;11.02;100.00
32109;BME280;18624;50.042;8.436;2023-03-13T10:49:02;99183.19;;;12.07;100.00
32109;BME280;18624;50.042;8.436;2023-03-13T10:51:38;99214.22;;;12.23;100.00
32109;BME280;18624;50.042;8.436;2023-03-13T10:54:23;99191.59;;;12.28;100.00
32109;BME280;18624;50.042;8.436;2023-03-13T10:56:52;99222.38;;;12.56;100.00
32109;BME280;18624;50.042;8.436;2023-03-13T10:59:38;99224.03;;;12.62;100.00
32109;BME280;18624;50.042;8.436;2023-03-13T11:02:30;99222.50;;;12.61;100.00
32109;BME280;18624;50.042;8.436;2023-03-13T11:04:57;99213.50;;;12.61;100.00
32109;BME280;18624;50.042;8.436;2023-03-13T11:07:28;99215.19;;;12.58;100.00
32109;BME280;18624;50.042;8.436;2023-03-13T11:10:13;99205.63;;;12.54;100.00
32109;BME280;18624;50.042;8.436;2023-03-13T11:12:48;99176.44;;;12.32;100.00
32109;BME280;18624;50.042;8.436;2023-03-13T11:18:02;99182.94;;;12.44;100.00
32109;BME280;18624;50.042;8.436;2023-03-13T11:20:39;99129.19;;;12.04;100.00
32109;BME280;18624;50.042;8.436;2023-03-13T11:23:13;99188.44;;;12.44;100.00
32109;BME280;18624;50.042;8.436;2023-03-13T11:25:54;99178.38;;;12.41;100.00
32109;BME280;18624;50.042;8.436;2023-03-13T11:31:01;99189.78;;;12.49;100.00
32109;BME280;18624;50.042;8.436;2023-03-13T11:36:22;99170.81;;;12.51;100.00
32109;BME280;18624;50.042;8.436;2023-03-13T11:39:02;99080.38;;;11.84;100.00
32109;BME280;18624;50.042;8.436;2023-03-13T11:45:06;99152.53;;;12.48;100.00
32109;BME280;18624;50.042;8.436;2023-03-13T11:48:08;99097.31;;;12.07;100.00
32109;BME280;18624;50.042;8.436;2023-03-13T11:50:59;99136.56;;;12.37;100.00
32109;BME280;18624;50.042;8.436;2023-03-13T11:53:46;99027.69;;;11.71;100.00
32109;BME280;18624;50.042;8.436;2023-03-13T11:56:29;99092.50;;;12.16;100.00
32109;BME280;18624;50.042;8.436;2023-03-13T12:02:13;98965.16;;;11.51;100.00
32109;BME280;18624;50.042;8.436;2023-03-13T12:04:47;99118.31;;;12.63;100.00
32109;BME280;18624;50.042;8.436;2023-03-13T12:07:24;99107.63;;;12.65;100.00
32109;BME280;18624;50.042;8.436;2023-03-13T12:12:46;99099.66;;;12.67;100.00
32109;BME280;18624;50.042;8.436;2023-03-13T12:15:25;99087.53;;;12.59;100.00
32109;BME280;18624;50.042;8.436;2023-03-13T12:18:18;99042.59;;;12.33;100.00
32109;BME280;18624;50.042;8.436;2023-03-13T12:26:37;99088.09;;;12.63;100.00
32109;BME280;18624;50.042;8.436;2023-03-13T12:29:13;99079.84;;;12.63;100.00
32109;BME280;18624;50.042;8.436;2023-03-13T12:31:47;98944.19;;;11.78;100.00
32109;BME280;18624;50.042;8.436;2023-03-13T12:34:29;98993.78;;;12.13;100.00
32109;BME280;18624;50.042;8.436;2023-03-13T12:37:08;99063.16;;;12.67;100.00
32109;BME280;18624;50.042;8.436;2023-03-13T12:39:48;99036.81;;;12.46;100.00
32109;BME280;18624;50.042;8.436;2023-03-13T12:42:26;99058.25;;;12.56;100.00
32109;BME280;18624;50.042;8.436;2023-03-13T12:44:57;98964.03;;;11.97;100.00
32109;BME280;18624;50.042;8.436;2023-03-13T12:47:32;98785.19;;;10.76;100.00
32109;BME280;18624;50.042;8.436;2023-03-13T12:52:53;98987.72;;;12.09;100.00
32109;BME280;18624;50.042;8.436;2023-03-13T12:55:48;99030.94;;;12.38;100.00
32109;BME280;18624;50.042;8.436;2023-03-13T12:58:39;99021.94;;;12.37;100.00
32109;BME280;18624;50.042;8.436;2023-03-13T13:01:16;98938.06;;;11.83;100.00
32109;BME280;18624;50.042;8.436;2023-03-13T13:03:51;98821.94;;;11.08;100.00
32109;BME280;18624;50.042;8.436;2023-03-13T13:06:19;98925.41;;;11.85;100.00
32109;BME280;18624;50.042;8.436;2023-03-13T13:08:49;98982.63;;;12.31;100.00
32109;BME280;18624;50.042;8.436;2023-03-13T13:16:45;98844.72;;;11.68;100.00
32109;BME280;18624;50.042;8.436;2023-03-13T13:33:35;98900.19;;;12.81;100.00
32109;BME280;18624;50.042;8.436;2023-03-13T13:35:35;98884.63;;;12.78;100.00
32109;BME280;18624;50.042;8.436;2023-03-13T13:43:41;98856.19;;;13.02;100.00
32109;BME280;18624;50.042;8.436;2023-03-13T13:46:22;98816.38;;;12.77;100.00
32109;BME280;18624;50.042;8.436;2023-03-13T13:49:12;98822.78;;;12.88;100.00
32109;BME280;18624;50.042;8.436;2023-03-13T13:51:40;98825.41;;;12.98;100.00
32109;BME280;18624;50.042;8.436;2023-03-13T13:54:32;98815.25;;;13.09;100.00
32109;BME280;18624;50.042;8.436;2023-03-13T13:57:09;98816.31;;;13.12;100.00
32109;BME280;18624;50.042;8.436;2023-03-13T13:59:46;98807.34;;;13.17;100.00
32109;BME280;18624;50.042;8.436;2023-03-13T14:02:19;98780.81;;;13.14;100.00
32109;BME280;18624;50.042;8.436;2023-03-13T14:05:00;98793.69;;;13.23;100.00
32109;BME280;18624;50.042;8.436;2023-03-13T14:12:54;98769.75;;;13.29;100.00
32109;BME280;18624;50.042;8.436;2023-03-13T14:15:26;98735.44;;;13.04;100.00
32109;BME280;18624;50.042;8.436;2023-03-13T14:17:59;98769.47;;;13.27;100.00
32109;BME280;18624;50.042;8.436;2023-03-13T14:20:37;98741.75;;;13.10;100.00
32109;BME280;18624;50.042;8.436;2023-03-13T14:23:09;98759.97;;;13.28;100.00
32109;BME280;18624;50.042;8.436;2023-03-13T14:25:42;98712.47;;;13.07;100.00
32109;BME280;18624;50.042;8.436;2023-03-13T14:28:16;98743.03;;;13.35;100.00
32109;BME280;18624;50.042;8.436;2023-03-13T14:30:43;98659.25;;;12.84;100.00